createdAt,value
2018-06-05T00:01:16.737Z,82.20
2018-06-05T00:03:44.227Z,81.90
2018-06-05T00:06:11.725Z,81.80
2018-06-05T00:08:39.212Z,82.00
2018-06-05T00:11:06.765Z,81.60
2018-06-05T00:13:34.276Z,80.60
2018-06-05T00:16:01.821Z,80.40
2018-06-05T00:18:29.317Z,81.40
2018-06-05T00:20:56.836Z,81.60
2018-06-05T00:23:24.339Z,81.10
2018-06-05T00:25:51.864Z,80.80
2018-06-05T00:28:19.355Z,81.10
2018-06-05T00:30:46.862Z,81.70
2018-06-05T00:33:14.370Z,81.90
2018-06-05T00:38:09.304Z,82.00
2018-06-05T00:40:36.864Z,81.70
2018-06-05T00:43:04.449Z,81.70
2018-06-05T00:45:31.947Z,80.90
2018-06-05T00:50:27.808Z,80.80
2018-06-05T00:52:55.341Z,81.40
2018-06-05T00:55:22.861Z,81.10
2018-06-05T00:57:50.372Z,81.00
2018-06-05T01:00:18.382Z,81.30
2018-06-05T01:02:45.924Z,81.30
2018-06-05T01:05:13.425Z,82.20
2018-06-05T01:07:40.965Z,81.90
2018-06-05T01:10:08.464Z,80.30
2018-06-05T01:12:35.989Z,79.90
2018-06-05T01:15:03.625Z,80.20
2018-06-05T01:17:31.141Z,80.90
2018-06-05T01:19:58.646Z,80.70
2018-06-05T01:22:26.746Z,80.30
2018-06-05T01:24:54.232Z,80.60
2018-06-05T01:27:21.745Z,80.80
2018-06-05T01:29:49.252Z,80.80
2018-06-05T01:32:16.756Z,81.70
2018-06-05T01:34:44.258Z,81.80
2018-06-05T01:37:11.801Z,82.30
2018-06-05T01:39:39.325Z,82.50
2018-06-05T01:42:06.915Z,83.30
2018-06-05T01:44:34.459Z,83.50
2018-06-05T01:47:01.981Z,83.00
2018-06-05T01:49:35.141Z,83.70
2018-06-05T01:52:02.999Z,83.40
2018-06-05T01:54:30.497Z,83.60
2018-06-05T01:56:58.007Z,83.60
2018-06-05T01:59:25.537Z,83.80
2018-06-05T02:01:53.037Z,83.30
2018-06-05T02:04:20.549Z,82.60
2018-06-05T02:06:48.056Z,82.60
2018-06-05T02:09:15.564Z,82.70
2018-06-05T02:11:43.060Z,81.70
2018-06-05T02:14:10.667Z,81.00
2018-06-05T02:16:38.167Z,80.80
2018-06-05T02:19:05.926Z,81.20
2018-06-05T02:21:33.412Z,82.00
2018-06-05T02:24:00.928Z,82.50
2018-06-05T02:26:28.408Z,83.10
2018-06-05T02:28:55.925Z,83.30
2018-06-05T02:31:23.443Z,83.90
2018-06-05T02:33:50.982Z,84.10
2018-06-05T02:36:18.487Z,84.10
2018-06-05T02:38:46.037Z,84.20
2018-06-05T02:41:13.917Z,84.00
2018-06-05T02:43:41.428Z,84.10
2018-06-05T02:48:36.349Z,84.60
2018-06-05T02:51:04.317Z,84.50
2018-06-05T02:53:31.855Z,84.80
2018-06-05T02:55:59.368Z,85.20
2018-06-05T02:58:26.897Z,85.40
2018-06-05T03:03:21.848Z,85.90
2018-06-05T03:05:49.993Z,86.50
2018-06-05T03:08:17.579Z,86.60
2018-06-05T03:10:45.086Z,87.40
2018-06-05T03:13:12.626Z,88.70
2018-06-05T03:15:40.143Z,88.60
2018-06-05T03:18:07.632Z,89.00
2018-06-05T03:20:35.151Z,89.40
2018-06-05T03:23:02.652Z,89.70
2018-06-05T03:25:30.212Z,90.00
2018-06-05T03:27:57.697Z,90.00
2018-06-05T03:30:25.228Z,90.00
2018-06-05T03:32:52.716Z,90.20
2018-06-05T03:35:20.256Z,90.10
2018-06-05T03:37:47.768Z,90.00
2018-06-05T03:40:15.293Z,90.40
2018-06-05T03:42:42.783Z,90.60
2018-06-05T03:45:10.288Z,90.60
2018-06-05T03:47:37.821Z,90.60
2018-06-05T03:50:05.401Z,90.50
2018-06-05T03:52:32.939Z,90.60
2018-06-05T03:55:00.465Z,90.30
2018-06-05T03:57:28.017Z,90.00
2018-06-05T03:59:55.556Z,90.00
2018-06-05T04:02:23.051Z,89.20
2018-06-05T04:04:50.572Z,89.10
2018-06-05T04:07:18.112Z,89.40
2018-06-05T04:09:45.648Z,89.30
2018-06-05T04:12:13.161Z,89.30
2018-06-05T04:14:40.705Z,88.50
2018-06-05T04:17:08.219Z,88.80
2018-06-05T04:19:35.757Z,89.10
2018-06-05T04:22:03.273Z,89.40
2018-06-05T04:24:30.812Z,89.60
2018-06-05T04:26:58.322Z,89.50
2018-06-05T04:29:25.844Z,88.90
2018-06-05T04:31:53.951Z,88.80
2018-06-05T04:34:21.500Z,89.80
2018-06-05T04:36:49.068Z,89.30
2018-06-05T04:39:16.617Z,89.60
2018-06-05T04:41:44.121Z,88.50
2018-06-05T04:44:11.656Z,88.80
2018-06-05T04:46:39.163Z,88.20
2018-06-05T04:49:06.700Z,88.00
2018-06-05T04:51:34.204Z,87.00
2018-06-05T04:54:01.747Z,86.80
2018-06-05T04:56:29.273Z,86.30
2018-06-05T04:58:56.789Z,86.10
2018-06-05T05:01:24.314Z,86.10
2018-06-05T05:03:51.882Z,86.50
2018-06-05T05:06:20.048Z,86.30
2018-06-05T05:08:47.545Z,86.30
2018-06-05T05:11:15.138Z,85.70
2018-06-05T05:13:42.704Z,86.00
2018-06-05T05:16:10.220Z,86.10
2018-06-05T05:18:37.716Z,86.00
2018-06-05T05:21:05.258Z,85.50
2018-06-05T05:23:32.772Z,85.80
2018-06-05T05:26:00.296Z,86.20
2018-06-05T05:28:27.804Z,86.10
2018-06-05T05:30:55.403Z,86.10
2018-06-05T05:33:22.920Z,85.70
2018-06-05T05:35:50.473Z,85.40
2018-06-05T05:38:18.048Z,85.10
2018-06-05T05:40:45.579Z,85.20
2018-06-05T05:43:13.885Z,84.60
2018-06-05T05:45:41.415Z,84.40
2018-06-05T05:48:08.934Z,84.30
2018-06-05T05:50:36.535Z,84.80
2018-06-05T05:53:04.119Z,83.80
2018-06-05T05:55:31.647Z,83.80
2018-06-05T05:57:59.177Z,83.60
2018-06-05T06:00:26.741Z,83.40
2018-06-05T06:02:54.232Z,82.60
2018-06-05T06:05:21.782Z,83.50
2018-06-05T06:07:49.305Z,83.20
2018-06-05T06:10:16.849Z,84.00
2018-06-05T06:12:44.352Z,83.60
2018-06-05T06:15:11.973Z,83.90
2018-06-05T06:17:39.493Z,83.10
2018-06-05T06:20:07.009Z,83.40
2018-06-05T06:22:34.501Z,83.60
2018-06-05T06:25:02.070Z,83.90
2018-06-05T06:27:29.567Z,83.70
2018-06-05T06:29:57.161Z,83.60
2018-06-05T06:32:24.739Z,84.20
2018-06-05T06:34:52.248Z,84.30
2018-06-05T06:37:19.787Z,83.70
2018-06-05T06:39:47.357Z,83.70
2018-06-05T06:42:14.888Z,83.40
2018-06-05T06:44:42.460Z,83.30
2018-06-05T06:47:09.987Z,82.90
2018-06-05T06:49:37.472Z,83.90
2018-06-05T06:52:05.013Z,83.60
2018-06-05T06:54:32.606Z,83.00
2018-06-05T06:57:00.113Z,83.10
2018-06-05T06:59:27.611Z,82.80
2018-06-05T07:01:55.168Z,83.00
2018-06-05T07:04:22.683Z,82.70
2018-06-05T07:06:50.244Z,83.00
2018-06-05T07:09:17.760Z,82.90
2018-06-05T07:11:45.281Z,83.40
2018-06-05T07:14:12.777Z,83.20
2018-06-05T07:16:40.312Z,82.70
2018-06-05T07:19:07.823Z,82.30
2018-06-05T07:21:35.362Z,81.70
2018-06-05T07:24:02.953Z,80.00
2018-06-05T07:26:30.478Z,80.30
2018-06-05T07:28:58.011Z,79.30
2018-06-05T07:31:25.583Z,78.70
2018-06-05T07:33:53.122Z,79.20
2018-06-05T07:36:20.680Z,80.00
2018-06-05T07:38:48.240Z,80.00
2018-06-05T07:41:15.869Z,80.80
2018-06-05T07:43:43.361Z,80.90
2018-06-05T07:46:10.898Z,81.10
2018-06-05T07:48:38.441Z,81.10
2018-06-05T07:51:05.985Z,81.10
2018-06-05T07:53:33.508Z,81.10
2018-06-05T07:56:01.051Z,80.10
2018-06-05T07:58:28.708Z,80.00
2018-06-05T08:00:56.266Z,79.70
2018-06-05T08:03:23.744Z,79.20
2018-06-05T08:05:51.284Z,79.00
2018-06-05T08:08:18.781Z,79.60
2018-06-05T08:10:46.309Z,78.80
2018-06-05T08:13:13.860Z,79.00
2018-06-05T08:15:41.353Z,78.80
2018-06-05T08:18:08.884Z,79.50
2018-06-05T08:20:37.086Z,79.30
2018-06-05T08:23:04.728Z,78.40
2018-06-05T08:25:32.265Z,77.40
2018-06-05T08:27:59.802Z,78.20
2018-06-05T08:30:27.363Z,75.40
2018-06-05T08:32:54.920Z,76.60
2018-06-05T08:35:22.442Z,76.20
2018-06-05T08:37:50.022Z,75.00
2018-06-05T08:42:45.021Z,73.30
2018-06-05T08:45:12.549Z,73.90
2018-06-05T08:47:40.109Z,72.50
2018-06-05T08:50:07.634Z,73.40
2018-06-05T08:52:35.657Z,72.60
2018-06-05T08:55:03.296Z,73.20
2018-06-05T08:57:30.837Z,75.00
2018-06-05T08:59:58.410Z,74.80
2018-06-05T09:02:26.012Z,75.30
2018-06-05T09:04:53.522Z,75.60
2018-06-05T09:07:21.079Z,75.50
2018-06-05T09:09:48.724Z,74.50
2018-06-05T09:12:16.282Z,73.50
2018-06-05T09:14:43.820Z,71.70
2018-06-05T09:17:11.353Z,72.70
2018-06-05T09:19:38.885Z,71.90
2018-06-05T09:22:06.881Z,71.20
2018-06-05T09:24:34.409Z,69.30
2018-06-05T09:27:01.977Z,70.60
2018-06-05T09:29:29.481Z,71.00
2018-06-05T09:31:57.061Z,69.70
2018-06-05T09:34:24.618Z,70.50
2018-06-05T09:39:19.572Z,72.50
2018-06-05T09:41:47.088Z,72.00
2018-06-05T09:44:14.607Z,70.70
2018-06-05T09:46:42.244Z,71.30
2018-06-05T09:49:09.790Z,73.00
2018-06-05T09:51:37.305Z,73.80
2018-06-05T09:54:04.965Z,74.00
2018-06-05T09:56:32.490Z,73.30
2018-06-05T09:59:00.065Z,72.40
2018-06-05T10:01:27.572Z,72.60
2018-06-05T10:03:55.201Z,73.10
2018-06-05T10:06:22.700Z,71.80
2018-06-05T10:08:50.231Z,72.60
2018-06-05T10:11:17.765Z,72.60
2018-06-05T10:13:45.331Z,73.90
2018-06-05T10:16:12.873Z,73.30
2018-06-05T10:18:40.418Z,73.20
2018-06-05T10:21:07.920Z,72.70
2018-06-05T10:23:35.441Z,74.20
2018-06-05T10:26:03.048Z,73.50
2018-06-05T10:28:30.551Z,73.60
2018-06-05T10:30:58.100Z,74.40
2018-06-05T10:33:25.604Z,73.50
2018-06-05T10:35:53.094Z,72.90
2018-06-05T10:38:20.634Z,70.60
2018-06-05T10:40:48.174Z,70.30
2018-06-05T10:43:15.772Z,69.80
2018-06-05T10:45:43.292Z,69.40
2018-06-05T10:48:10.777Z,70.70
2018-06-05T10:50:38.777Z,71.40
2018-06-05T10:53:06.692Z,71.70
2018-06-05T10:55:34.839Z,70.20
2018-06-05T10:58:02.385Z,69.90
2018-06-05T11:00:30.021Z,68.30
2018-06-05T11:02:57.631Z,70.20
2018-06-05T11:05:25.365Z,70.70
2018-06-05T11:07:52.899Z,69.90
2018-06-05T11:10:20.437Z,68.20
2018-06-05T11:12:48.005Z,68.30
2018-06-05T11:15:15.545Z,68.30
2018-06-05T11:20:10.581Z,66.60
2018-06-05T11:22:38.272Z,67.50
2018-06-05T11:25:05.953Z,65.40
2018-06-05T11:27:33.483Z,65.80
2018-06-05T11:30:01.119Z,65.10
2018-06-05T11:32:28.579Z,66.10
2018-06-05T11:34:56.118Z,66.50
2018-06-05T11:37:24.948Z,64.70
2018-06-05T11:39:52.508Z,64.90
2018-06-05T11:42:20.017Z,65.80
2018-06-05T11:47:15.035Z,64.80
2018-06-05T11:49:42.594Z,64.40
2018-06-05T11:52:10.178Z,65.80
2018-06-05T11:54:37.689Z,64.30
2018-06-05T11:57:05.268Z,65.90
2018-06-05T11:59:32.804Z,64.30
2018-06-05T12:02:00.405Z,64.70
2018-06-05T12:04:27.950Z,65.80
2018-06-05T12:06:55.534Z,65.30
2018-06-05T12:09:23.093Z,62.80
2018-06-05T12:11:50.674Z,63.40
2018-06-05T12:14:18.233Z,62.20
2018-06-05T12:16:45.719Z,62.10
2018-06-05T12:19:13.248Z,61.00
2018-06-05T12:21:40.758Z,60.80
2018-06-05T12:24:08.293Z,60.50
2018-06-05T12:26:35.800Z,61.60
2018-06-05T12:29:03.624Z,63.40
2018-06-05T12:31:31.178Z,62.60
2018-06-05T12:33:58.721Z,62.20
2018-06-05T12:36:26.247Z,60.80
2018-06-05T12:41:28.118Z,60.00
2018-06-05T12:43:55.682Z,59.90
2018-06-05T12:46:23.206Z,59.30
2018-06-05T12:48:50.755Z,61.60
2018-06-05T12:51:18.282Z,62.30
2018-06-05T12:53:46.004Z,61.60
2018-06-05T12:56:13.697Z,62.20
2018-06-05T12:58:41.224Z,60.80
2018-06-05T13:01:08.741Z,61.10
2018-06-05T13:03:36.255Z,62.20
2018-06-05T13:06:03.873Z,63.00
2018-06-05T13:08:31.400Z,63.80
2018-06-05T13:10:58.966Z,63.60
2018-06-05T13:13:26.487Z,63.00
2018-06-05T13:15:54.055Z,62.40
2018-06-05T13:18:21.619Z,60.80
2018-06-05T13:20:49.253Z,59.60
2018-06-05T13:23:16.849Z,58.50
2018-06-05T13:25:44.649Z,57.30
2018-06-05T13:28:12.175Z,56.90
2018-06-05T13:30:40.003Z,57.90
2018-06-05T13:33:07.574Z,57.30
2018-06-05T13:35:35.153Z,57.40
2018-06-05T13:38:03.031Z,59.10
2018-06-05T13:40:30.665Z,57.80
2018-06-05T13:42:58.470Z,58.00
2018-06-05T13:45:26.024Z,58.30
2018-06-05T13:47:53.548Z,58.30
2018-06-05T13:50:21.154Z,58.20
2018-06-05T13:52:48.684Z,58.30
2018-06-05T13:55:16.270Z,55.80
2018-06-05T13:57:43.821Z,57.10
2018-06-05T14:00:11.437Z,55.60
2018-06-05T14:02:40.872Z,55.00
2018-06-05T14:05:08.433Z,53.70
2018-06-05T14:07:35.982Z,55.00
2018-06-05T14:10:06.852Z,56.80
2018-06-05T14:12:34.486Z,58.60
2018-06-05T14:15:02.235Z,58.60
2018-06-05T14:17:29.860Z,57.60
2018-06-05T14:19:59.149Z,57.40
2018-06-05T14:24:54.171Z,56.80
2018-06-05T14:27:21.711Z,56.60
2018-06-05T14:29:49.261Z,55.30
2018-06-05T14:32:16.960Z,55.50
2018-06-05T14:34:44.501Z,55.70
2018-06-05T14:37:12.141Z,54.10
2018-06-05T14:39:39.692Z,55.10
2018-06-05T14:42:07.324Z,53.60
2018-06-05T14:44:34.864Z,55.60
2018-06-05T14:47:02.498Z,53.90
2018-06-05T14:49:30.170Z,54.60
2018-06-05T14:54:25.227Z,54.60
2018-06-05T14:56:52.785Z,56.80
2018-06-05T14:59:20.316Z,55.20
2018-06-05T15:01:47.828Z,54.00
2018-06-05T15:04:15.364Z,53.20
2018-06-05T15:06:42.937Z,52.50
2018-06-05T15:09:10.513Z,53.50
2018-06-05T15:11:38.157Z,53.10
2018-06-05T15:14:05.777Z,54.00
2018-06-05T15:16:33.300Z,53.90
2018-06-05T15:21:28.353Z,54.40
2018-06-05T15:23:56.014Z,54.00
2018-06-05T15:26:23.595Z,54.60
2018-06-05T15:28:51.135Z,52.60
2018-06-05T15:31:18.858Z,53.00
2018-06-05T15:33:46.396Z,52.70
2018-06-05T15:38:41.680Z,51.40
2018-06-05T15:41:09.284Z,49.80
2018-06-05T15:43:36.919Z,48.00
2018-06-05T15:46:04.565Z,45.40
2018-06-05T15:48:32.121Z,43.30
2018-06-05T15:50:59.689Z,40.00
2018-06-05T15:53:27.208Z,40.00
2018-06-05T15:55:55.757Z,37.70
2018-06-05T15:58:23.278Z,36.30
2018-06-05T16:00:50.864Z,34.40
2018-06-05T16:03:18.363Z,33.70
2018-06-05T16:05:45.918Z,33.70
2018-06-05T16:08:13.481Z,33.20
2018-06-05T16:10:41.247Z,34.00
2018-06-05T16:13:08.803Z,34.10
2018-06-05T16:18:04.013Z,33.80
2018-06-05T16:20:31.657Z,35.30
2018-06-05T16:22:59.182Z,34.20
2018-06-05T16:25:26.728Z,33.80
2018-06-05T16:27:54.236Z,33.30
2018-06-05T16:30:21.886Z,33.80
2018-06-05T16:32:49.457Z,33.00
2018-06-05T16:35:16.997Z,32.30
2018-06-05T16:37:44.497Z,32.30
2018-06-05T16:40:12.120Z,32.20
2018-06-05T16:42:39.667Z,32.80
2018-06-05T16:45:07.233Z,33.80
2018-06-05T16:47:34.787Z,33.70
2018-06-05T16:50:02.292Z,33.10
2018-06-05T16:52:29.913Z,34.10
2018-06-05T16:54:57.489Z,33.10
2018-06-05T16:57:25.202Z,33.90
2018-06-05T16:59:52.845Z,34.70
2018-06-05T17:02:20.442Z,34.60
2018-06-05T17:04:48.019Z,35.80
2018-06-05T17:07:15.565Z,34.70
2018-06-05T17:09:43.061Z,35.00
2018-06-05T17:12:10.600Z,36.30
2018-06-05T17:14:38.097Z,38.30
2018-06-05T17:17:05.973Z,37.40
2018-06-05T17:19:33.929Z,37.00
2018-06-05T17:22:01.543Z,35.70
2018-06-05T17:24:29.273Z,36.90
2018-06-05T17:26:57.078Z,36.90
2018-06-05T17:29:24.599Z,37.30
2018-06-05T17:31:52.122Z,37.60
2018-06-05T17:36:47.533Z,37.30
2018-06-05T17:39:15.113Z,37.60
2018-06-05T17:41:42.977Z,38.30
2018-06-05T17:44:10.603Z,37.60
2018-06-05T17:46:38.129Z,37.90
2018-06-05T17:49:05.693Z,38.30
2018-06-05T17:51:33.226Z,38.80
2018-06-05T17:54:00.895Z,39.80
2018-06-05T17:56:28.496Z,38.80
2018-06-05T18:01:23.705Z,39.80
2018-06-05T18:03:51.335Z,38.70
2018-06-05T18:06:18.892Z,38.00
2018-06-05T18:08:46.584Z,38.60
2018-06-05T18:11:14.405Z,39.80
2018-06-05T18:13:41.975Z,41.00
2018-06-05T18:16:09.642Z,41.80
2018-06-05T18:18:37.991Z,41.00
2018-06-05T18:21:06.070Z,40.30
2018-06-05T18:23:33.536Z,39.80
2018-06-05T18:26:01.446Z,40.50
2018-06-05T18:28:29.310Z,40.00
2018-06-05T18:30:57.073Z,40.20
2018-06-05T18:33:25.002Z,41.20
2018-06-05T18:35:52.865Z,42.10
2018-06-05T18:38:20.458Z,40.10
2018-06-05T18:40:49.068Z,40.40
2018-06-05T18:43:16.633Z,41.50
2018-06-05T18:45:44.310Z,41.50
2018-06-05T18:48:12.278Z,42.20
2018-06-05T18:50:40.326Z,41.50
2018-06-05T18:53:07.862Z,42.90
2018-06-05T18:55:35.397Z,43.70
2018-06-05T18:58:02.952Z,43.90
2018-06-05T19:00:30.523Z,45.00
2018-06-05T19:02:58.043Z,46.40
2018-06-05T19:05:25.638Z,47.10
2018-06-05T19:07:53.161Z,48.90
2018-06-05T19:10:21.533Z,49.60
2018-06-05T19:12:49.074Z,50.80
2018-06-05T19:15:16.955Z,51.70
2018-06-05T19:17:45.169Z,51.90
2018-06-05T19:20:12.723Z,52.20
2018-06-05T19:22:41.280Z,53.50
2018-06-05T19:25:09.618Z,54.40
2018-06-05T19:27:37.550Z,54.90
2018-06-05T19:30:05.135Z,55.50
2018-06-05T19:32:33.539Z,55.70
2018-06-05T19:35:01.682Z,56.50
2018-06-05T19:37:30.073Z,57.20
2018-06-05T19:42:26.103Z,58.20
2018-06-05T19:44:53.972Z,58.20
2018-06-05T19:47:21.688Z,59.10
2018-06-05T19:49:49.248Z,58.60
2018-06-05T19:52:17.138Z,58.30
2018-06-05T19:54:45.367Z,59.00
2018-06-05T19:57:13.918Z,60.70
2018-06-05T19:59:42.201Z,59.70
2018-06-05T20:04:39.313Z,60.70
2018-06-05T20:07:07.454Z,62.50
2018-06-05T20:09:35.358Z,61.80
2018-06-05T20:12:03.033Z,62.90
2018-06-05T20:14:30.564Z,62.20
2018-06-05T20:16:58.537Z,63.40
2018-06-05T20:19:27.045Z,64.20
2018-06-05T20:21:55.872Z,64.10
2018-06-05T20:24:23.376Z,65.00
2018-06-05T20:26:51.132Z,64.80
2018-06-05T20:29:19.445Z,65.90
2018-06-05T20:31:46.944Z,65.90
2018-06-05T20:34:14.690Z,66.30
2018-06-05T20:36:42.765Z,66.70
2018-06-05T20:39:11.519Z,66.50
2018-06-05T20:41:39.979Z,67.00
2018-06-05T20:44:08.140Z,67.70
2018-06-05T20:46:35.661Z,67.90
2018-06-05T20:49:03.381Z,69.10
2018-06-05T20:51:30.962Z,68.80
2018-06-05T20:53:58.496Z,68.80
2018-06-05T20:56:26.012Z,69.40
2018-06-05T20:58:53.719Z,69.20
2018-06-05T21:01:21.243Z,69.60
2018-06-05T21:03:49.217Z,70.50
2018-06-05T21:06:16.950Z,71.30
2018-06-05T21:08:44.489Z,71.50
2018-06-05T21:11:11.987Z,71.10
2018-06-05T21:13:39.545Z,71.10
2018-06-05T21:16:07.066Z,71.40
2018-06-05T21:18:34.601Z,72.00
2018-06-05T21:21:02.105Z,71.60
2018-06-05T21:23:29.625Z,71.70
2018-06-05T21:25:57.146Z,71.90
2018-06-05T21:28:24.941Z,71.40
2018-06-05T21:30:52.497Z,71.40
2018-06-05T21:33:20.020Z,71.00
2018-06-05T21:35:47.554Z,71.50
2018-06-05T21:38:15.073Z,71.80
2018-06-05T21:40:42.633Z,72.30
2018-06-05T21:43:10.472Z,72.80
2018-06-05T21:45:37.997Z,72.90
2018-06-05T21:48:05.621Z,72.90
2018-06-05T21:50:33.425Z,73.20
2018-06-05T21:53:01.013Z,73.80
2018-06-05T21:55:28.641Z,73.20
2018-06-05T21:57:56.368Z,73.80
2018-06-05T22:00:24.136Z,74.50
2018-06-05T22:02:51.661Z,74.70
2018-06-05T22:05:19.373Z,75.00
2018-06-05T22:07:46.909Z,75.20
2018-06-05T22:10:14.585Z,75.80
2018-06-05T22:12:42.429Z,75.90
2018-06-05T22:15:10.006Z,76.20
2018-06-05T22:17:37.808Z,75.90
2018-06-05T22:20:05.576Z,75.90
2018-06-05T22:22:33.108Z,76.30
2018-06-05T22:25:00.677Z,75.90
2018-06-05T22:27:30.521Z,76.40
2018-06-05T22:29:58.029Z,77.10
2018-06-05T22:32:25.544Z,77.40
2018-06-05T22:34:53.049Z,77.40
2018-06-05T22:37:20.578Z,77.00
2018-06-05T22:39:48.094Z,76.90
2018-06-05T22:42:15.621Z,77.30
2018-06-05T22:44:43.121Z,77.60
2018-06-05T22:47:10.659Z,77.60
2018-06-05T22:49:38.170Z,78.00
2018-06-05T22:52:05.696Z,78.40
2018-06-05T22:54:33.219Z,78.50
2018-06-05T22:57:00.781Z,79.10
2018-06-05T22:59:28.306Z,79.40
2018-06-05T23:01:55.836Z,79.30
2018-06-05T23:04:23.340Z,79.30
2018-06-05T23:06:50.885Z,79.50
2018-06-05T23:09:18.405Z,79.60
2018-06-05T23:11:45.925Z,80.00
2018-06-05T23:14:13.460Z,79.90
2018-06-05T23:16:41.018Z,80.10
2018-06-05T23:19:08.548Z,80.20
2018-06-05T23:24:03.519Z,80.50
2018-06-05T23:26:31.055Z,80.30
2018-06-05T23:28:58.565Z,80.90
2018-06-05T23:31:26.090Z,81.20
2018-06-05T23:33:53.621Z,81.40
2018-06-05T23:36:21.117Z,81.30
2018-06-05T23:38:48.653Z,81.50
2018-06-05T23:41:16.173Z,81.40
2018-06-05T23:43:43.702Z,81.40
2018-06-05T23:46:11.190Z,81.70
2018-06-05T23:48:38.728Z,81.40
2018-06-05T23:51:06.239Z,81.40
2018-06-05T23:53:33.790Z,81.50
2018-06-05T23:56:01.326Z,81.30
2018-06-05T23:58:28.852Z,81.50
